createdAt,value
2023-02-27T00:01:47.112Z,88.95
2023-02-27T00:04:15.798Z,89.06
2023-02-27T00:06:43.993Z,89.17
2023-02-27T00:09:12.686Z,89.18
2023-02-27T00:11:40.900Z,89.16
2023-02-27T00:14:09.706Z,89.03
2023-02-27T00:16:37.993Z,88.99
2023-02-27T00:19:10.047Z,89.10
2023-02-27T00:21:38.260Z,89.03
2023-02-27T00:24:11.107Z,89.15
2023-02-27T00:26:39.484Z,89.06
2023-02-27T00:29:08.173Z,89.01
2023-02-27T00:31:36.583Z,88.98
2023-02-27T00:34:04.852Z,89.02
2023-02-27T00:36:33.211Z,89.03
2023-02-27T00:39:01.784Z,88.97
2023-02-27T00:41:30.071Z,88.93
2023-02-27T00:44:01.734Z,89.11
2023-02-27T00:46:30.448Z,89.12
2023-02-27T00:49:00.663Z,89.12
2023-02-27T00:51:29.237Z,89.08
2023-02-27T00:53:57.703Z,89.11
2023-02-27T00:56:25.971Z,89.05
2023-02-27T00:58:54.290Z,88.94
2023-02-27T01:01:23.688Z,89.21
2023-02-27T01:03:52.445Z,89.13
2023-02-27T01:06:21.235Z,88.98
2023-02-27T01:08:49.408Z,89.10
2023-02-27T01:11:20.416Z,89.05
2023-02-27T01:13:48.937Z,89.07
2023-02-27T01:16:18.359Z,89.07
2023-02-27T01:18:48.809Z,88.78
2023-02-27T01:21:17.965Z,88.97
2023-02-27T01:23:51.061Z,89.05
2023-02-27T01:26:20.831Z,89.09
2023-02-27T01:28:49.052Z,89.02
2023-02-27T01:31:17.216Z,89.11
2023-02-27T01:33:46.130Z,89.30
2023-02-27T01:36:14.794Z,89.26
2023-02-27T01:38:44.021Z,89.19
2023-02-27T01:41:13.315Z,89.15
2023-02-27T01:44:01.960Z,89.20
2023-02-27T01:46:32.585Z,89.10
2023-02-27T01:49:04.537Z,89.23
2023-02-27T01:51:40.349Z,89.18
2023-02-27T01:54:09.954Z,89.13
2023-02-27T01:56:38.063Z,89.16
2023-02-27T01:59:07.824Z,89.32
2023-02-27T02:01:36.643Z,89.12
2023-02-27T02:04:26.592Z,89.19
2023-02-27T02:07:01.542Z,89.27
2023-02-27T02:09:29.879Z,89.22
2023-02-27T02:11:58.171Z,89.12
2023-02-27T02:14:30.023Z,89.39
2023-02-27T02:17:31.268Z,89.27
2023-02-27T02:20:37.431Z,89.22
2023-02-27T02:23:22.954Z,89.36
2023-02-27T02:26:33.153Z,89.30
2023-02-27T02:29:15.005Z,89.40
2023-02-27T02:32:02.484Z,89.37
2023-02-27T02:34:41.224Z,89.40
2023-02-27T02:37:37.458Z,89.46
2023-02-27T02:40:07.147Z,89.23
2023-02-27T02:42:50.565Z,89.43
2023-02-27T02:45:53.323Z,89.38
2023-02-27T02:48:27.216Z,89.28
2023-02-27T02:51:05.020Z,89.45
2023-02-27T02:53:52.743Z,89.42
2023-02-27T02:56:50.168Z,89.45
2023-02-27T02:59:32.996Z,89.52
2023-02-27T03:02:10.442Z,89.53
2023-02-27T03:04:49.833Z,89.58
2023-02-27T03:07:31.783Z,89.44
2023-02-27T03:10:08.944Z,89.60
2023-02-27T03:12:40.285Z,89.45
2023-02-27T03:15:20.245Z,89.37
2023-02-27T03:18:01.594Z,89.36
2023-02-27T03:20:40.321Z,89.60
2023-02-27T03:23:11.683Z,89.50
2023-02-27T03:25:46.493Z,89.67
2023-02-27T03:28:21.285Z,89.67
2023-02-27T03:31:10.015Z,89.58
2023-02-27T03:33:45.982Z,89.69
2023-02-27T03:36:27.834Z,89.80
2023-02-27T03:39:46.632Z,89.70
2023-02-27T03:42:36.688Z,89.76
2023-02-27T03:45:37.640Z,89.63
2023-02-27T03:48:07.022Z,89.69
2023-02-27T03:50:36.318Z,89.72
2023-02-27T03:53:06.731Z,89.70
2023-02-27T03:55:36.626Z,89.62
2023-02-27T03:58:04.695Z,89.62
2023-02-27T04:00:33.018Z,89.70
2023-02-27T04:03:03.095Z,89.62
2023-02-27T04:05:33.791Z,89.59
2023-02-27T04:08:09.382Z,89.75
2023-02-27T04:11:00.213Z,89.76
2023-02-27T04:13:40.278Z,89.54
2023-02-27T04:16:17.916Z,89.46
2023-02-27T04:19:05.048Z,89.59
2023-02-27T04:21:52.133Z,89.71
2023-02-27T04:24:39.437Z,89.86
2023-02-27T04:27:36.309Z,89.81
2023-02-27T04:30:28.609Z,89.80
2023-02-27T04:33:28.561Z,89.59
2023-02-27T04:36:27.953Z,89.46
2023-02-27T04:39:05.141Z,89.51
2023-02-27T04:41:39.808Z,89.40
2023-02-27T04:44:08.454Z,89.44
2023-02-27T04:46:37.595Z,89.43
2023-02-27T04:49:09.010Z,89.55
2023-02-27T04:51:40.609Z,89.48
2023-02-27T04:54:12.223Z,89.47
2023-02-27T04:56:44.773Z,89.34
2023-02-27T04:59:18.520Z,89.51
2023-02-27T05:02:09.092Z,89.55
2023-02-27T05:04:38.834Z,89.44
2023-02-27T05:07:09.701Z,89.52
2023-02-27T05:09:53.812Z,89.34
2023-02-27T05:12:52.908Z,89.50
2023-02-27T05:15:23.241Z,89.24
2023-02-27T05:17:57.695Z,89.27
2023-02-27T05:20:27.865Z,89.24
2023-02-27T05:23:14.676Z,89.27
2023-02-27T05:26:02.713Z,89.20
2023-02-27T05:28:34.877Z,89.02
2023-02-27T05:31:14.273Z,88.95
2023-02-27T05:34:02.590Z,88.87
2023-02-27T05:36:37.074Z,88.69
2023-02-27T05:39:07.062Z,88.67
2023-02-27T05:41:51.098Z,88.71
2023-02-27T05:44:23.848Z,88.86
2023-02-27T05:47:13.119Z,88.85
2023-02-27T05:49:47.877Z,88.91
2023-02-27T05:52:17.945Z,88.70
2023-02-27T05:54:53.996Z,88.79
2023-02-27T05:57:25.798Z,88.88
2023-02-27T06:00:17.911Z,88.93
2023-02-27T06:02:46.333Z,88.78
2023-02-27T06:05:15.702Z,88.63
2023-02-27T06:07:44.376Z,88.54
2023-02-27T06:10:16.954Z,88.59
2023-02-27T06:12:46.872Z,88.63
2023-02-27T06:15:15.051Z,88.51
2023-02-27T06:17:43.425Z,88.54
2023-02-27T06:20:12.521Z,88.65
2023-02-27T06:22:40.704Z,88.55
2023-02-27T06:25:10.111Z,88.49
2023-02-27T06:27:38.781Z,88.47
2023-02-27T06:30:08.594Z,88.50
2023-02-27T06:32:36.739Z,88.34
2023-02-27T06:35:06.970Z,88.40
2023-02-27T06:37:37.639Z,88.33
2023-02-27T06:40:11.593Z,88.41
2023-02-27T06:42:41.648Z,88.39
2023-02-27T06:45:10.696Z,88.24
2023-02-27T06:47:41.791Z,88.29
2023-02-27T06:50:11.600Z,88.13
2023-02-27T06:52:42.159Z,88.04
2023-02-27T06:55:11.536Z,87.95
2023-02-27T06:57:39.614Z,87.92
2023-02-27T07:00:10.225Z,87.88
2023-02-27T07:02:39.672Z,87.99
2023-02-27T07:05:09.044Z,87.69
2023-02-27T07:07:38.760Z,87.82
2023-02-27T07:10:13.241Z,87.59
2023-02-27T07:12:41.763Z,87.71
2023-02-27T07:15:11.674Z,87.63
2023-02-27T07:17:41.156Z,87.44
2023-02-27T07:20:13.200Z,87.42
2023-02-27T07:22:42.852Z,87.25
2023-02-27T07:25:11.135Z,87.10
2023-02-27T07:27:39.635Z,87.04
2023-02-27T07:30:09.120Z,86.90
2023-02-27T07:32:39.036Z,86.77
2023-02-27T07:35:08.322Z,86.83
2023-02-27T07:45:35.652Z,86.69
2023-02-27T07:48:04.028Z,86.54
2023-02-27T07:50:32.200Z,86.53
2023-02-27T07:53:00.483Z,86.63
2023-02-27T07:55:28.966Z,86.44
2023-02-27T07:57:59.105Z,86.44
2023-02-27T08:00:28.917Z,86.42
2023-02-27T08:02:56.992Z,86.60
2023-02-27T08:05:25.171Z,86.55
2023-02-27T08:07:53.133Z,86.45
2023-02-27T08:10:21.515Z,86.46
2023-02-27T08:12:49.673Z,86.67
2023-02-27T08:15:17.911Z,86.68
2023-02-27T08:17:47.047Z,86.62
2023-02-27T08:20:15.252Z,86.62
2023-02-27T08:22:43.606Z,86.58
2023-02-27T08:25:12.797Z,86.62
2023-02-27T08:27:41.042Z,86.44
2023-02-27T08:30:10.581Z,86.49
2023-02-27T08:32:39.570Z,86.48
2023-02-27T08:35:09.280Z,86.54
2023-02-27T08:37:37.797Z,86.39
2023-02-27T08:40:07.445Z,86.30
2023-02-27T08:42:37.495Z,86.29
2023-02-27T08:45:09.374Z,86.47
2023-02-27T08:47:37.980Z,86.55
2023-02-27T08:50:06.944Z,86.41
2023-02-27T08:52:35.620Z,86.63
2023-02-27T08:55:04.286Z,86.78
2023-02-27T08:57:32.368Z,86.75
2023-02-27T09:00:00.629Z,86.82
2023-02-27T09:02:29.043Z,86.80
2023-02-27T09:04:57.468Z,86.94
2023-02-27T09:07:25.689Z,86.92
2023-02-27T09:09:54.285Z,86.97
2023-02-27T09:12:27.375Z,87.03
2023-02-27T09:14:55.441Z,86.95
2023-02-27T09:17:29.271Z,86.84
2023-02-27T09:19:58.332Z,86.96
2023-02-27T09:22:26.717Z,86.87
2023-02-27T09:24:54.995Z,86.85
2023-02-27T09:27:24.133Z,86.97
2023-02-27T09:29:56.598Z,86.98
2023-02-27T09:32:25.653Z,86.94
2023-02-27T09:34:53.916Z,86.83
2023-02-27T09:37:24.985Z,86.77
2023-02-27T09:39:53.586Z,86.95
2023-02-27T09:42:27.488Z,86.61
2023-02-27T09:45:04.094Z,86.74
2023-02-27T09:47:43.237Z,86.80
2023-02-27T09:50:32.814Z,86.94
2023-02-27T09:53:03.542Z,86.79
2023-02-27T09:55:35.059Z,87.09
2023-02-27T09:58:26.311Z,86.87
2023-02-27T10:00:57.523Z,87.01
2023-02-27T10:04:00.286Z,87.18
2023-02-27T10:06:44.367Z,87.35
2023-02-27T10:09:34.603Z,87.46
2023-02-27T10:12:10.197Z,87.58
2023-02-27T10:14:42.692Z,87.56
2023-02-27T10:17:25.808Z,87.57
2023-02-27T10:19:54.351Z,87.68
2023-02-27T10:22:26.830Z,87.69
2023-02-27T10:33:12.197Z,87.72
2023-02-27T10:35:41.499Z,87.72
2023-02-27T10:38:15.123Z,87.76
2023-02-27T10:40:42.133Z,87.66
2023-02-27T10:43:10.210Z,87.99
2023-02-27T10:45:38.876Z,88.00
2023-02-27T10:48:05.938Z,88.00
2023-02-27T10:50:35.314Z,88.06
2023-02-27T10:53:03.412Z,88.11
2023-02-27T10:55:32.545Z,88.20
2023-02-27T10:57:59.689Z,88.32
2023-02-27T11:00:47.465Z,88.20
2023-02-27T11:03:24.384Z,88.18
2023-02-27T11:05:58.993Z,88.44
2023-02-27T11:08:27.806Z,88.46
2023-02-27T11:11:11.228Z,88.53
2023-02-27T11:13:41.403Z,88.53
2023-02-27T11:16:21.774Z,88.53
2023-02-27T11:18:49.654Z,88.60
2023-02-27T11:21:28.641Z,88.74
2023-02-27T11:23:59.808Z,88.73
2023-02-27T11:26:27.041Z,88.90
2023-02-27T11:29:11.031Z,88.82
2023-02-27T11:31:38.256Z,88.72
2023-02-27T11:34:05.124Z,88.81
2023-02-27T11:36:44.852Z,89.02
2023-02-27T11:39:34.987Z,88.87
2023-02-27T11:42:11.760Z,88.79
2023-02-27T11:44:50.775Z,88.97
2023-02-27T11:47:24.321Z,88.92
2023-02-27T11:50:01.459Z,89.07
2023-02-27T11:52:50.199Z,89.29
2023-02-27T11:55:19.741Z,89.10
2023-02-27T11:57:49.844Z,89.06
2023-02-27T12:00:32.436Z,89.13
2023-02-27T12:03:26.404Z,89.25
2023-02-27T12:05:59.270Z,89.17
2023-02-27T12:08:46.729Z,89.35
2023-02-27T12:11:40.521Z,89.53
2023-02-27T12:14:22.447Z,89.64
2023-02-27T12:16:53.664Z,89.57
2023-02-27T12:19:21.835Z,89.61
2023-02-27T12:21:53.841Z,89.77
2023-02-27T12:24:43.763Z,89.80
2023-02-27T12:27:30.757Z,89.75
2023-02-27T12:30:05.321Z,89.65
2023-02-27T12:32:42.591Z,89.82
2023-02-27T12:35:29.353Z,89.84
2023-02-27T12:37:56.697Z,89.90
2023-02-27T12:40:31.269Z,89.91
2023-02-27T12:43:22.050Z,89.72
2023-02-27T12:45:56.872Z,89.79
2023-02-27T12:49:02.427Z,89.83
2023-02-27T12:51:42.335Z,89.89
2023-02-27T12:54:22.295Z,89.67
2023-02-27T12:57:04.842Z,90.00
2023-02-27T12:59:47.301Z,89.82
2023-02-27T13:02:58.924Z,89.93
2023-02-27T13:05:44.333Z,89.71
2023-02-27T13:08:39.186Z,89.76
2023-02-27T13:11:16.878Z,89.79
2023-02-27T13:13:47.531Z,89.64
2023-02-27T13:16:26.328Z,89.91
2023-02-27T13:19:19.399Z,89.76
2023-02-27T13:22:05.595Z,89.72
2023-02-27T13:24:33.808Z,89.78
2023-02-27T13:27:15.514Z,89.68
2023-02-27T13:29:46.944Z,89.75
2023-02-27T13:32:42.644Z,89.91
2023-02-27T13:35:27.350Z,89.81
2023-02-27T13:38:05.365Z,89.82
2023-02-27T13:40:34.392Z,89.79
2023-02-27T13:43:25.370Z,89.84
2023-02-27T13:45:57.570Z,89.91
2023-02-27T13:48:33.800Z,90.01
2023-02-27T13:51:00.671Z,90.06
2023-02-27T13:53:27.861Z,90.13
2023-02-27T13:56:18.223Z,90.16
2023-02-27T13:58:45.988Z,90.45
2023-02-27T14:01:26.849Z,90.23
2023-02-27T14:03:59.035Z,90.28
2023-02-27T14:06:25.813Z,90.36
2023-02-27T14:09:08.771Z,90.37
2023-02-27T14:11:41.779Z,90.12
2023-02-27T14:14:36.075Z,90.20
2023-02-27T14:17:05.985Z,90.41
2023-02-27T14:19:47.505Z,90.27
2023-02-27T14:22:14.169Z,90.18
2023-02-27T14:25:00.982Z,90.14
2023-02-27T14:27:31.746Z,90.02
2023-02-27T14:30:01.714Z,90.08
2023-02-27T14:32:33.760Z,90.12
2023-02-27T14:35:00.694Z,90.10
2023-02-27T14:37:27.258Z,90.08
2023-02-27T14:39:54.533Z,90.14
2023-02-27T14:42:33.711Z,90.11
2023-02-27T14:45:00.815Z,90.22
2023-02-27T14:47:32.014Z,90.35
2023-02-27T14:49:58.788Z,90.24
2023-02-27T14:52:27.757Z,90.23
2023-02-27T14:55:18.225Z,90.20
2023-02-27T14:57:57.531Z,90.25
2023-02-27T15:00:50.017Z,90.41
2023-02-27T15:03:20.464Z,90.27
2023-02-27T15:05:48.722Z,90.18
2023-02-27T15:08:27.853Z,90.27
2023-02-27T15:10:55.238Z,90.29
2023-02-27T15:13:31.909Z,90.66
2023-02-27T15:16:25.459Z,90.68
2023-02-27T15:18:54.172Z,90.66
2023-02-27T15:21:22.615Z,90.49
2023-02-27T15:24:01.228Z,90.74
2023-02-27T15:26:37.203Z,90.72
2023-02-27T15:29:05.072Z,90.65
2023-02-27T15:31:32.209Z,90.70
2023-02-27T15:34:00.221Z,90.77
2023-02-27T15:36:34.511Z,90.65
2023-02-27T15:39:07.800Z,90.80
2023-02-27T15:41:35.697Z,90.93
2023-02-27T15:44:03.075Z,90.77
2023-02-27T15:46:32.491Z,90.76
2023-02-27T15:48:59.209Z,90.82
2023-02-27T15:51:26.456Z,91.07
2023-02-27T15:53:54.506Z,90.96
2023-02-27T15:56:26.102Z,91.07
2023-02-27T15:58:58.334Z,91.09
2023-02-27T16:01:34.579Z,91.22
2023-02-27T16:04:04.621Z,91.33
2023-02-27T16:06:37.713Z,91.14
2023-02-27T16:09:06.637Z,91.22
2023-02-27T16:11:38.156Z,91.30
2023-02-27T16:14:05.582Z,91.37
2023-02-27T16:16:36.949Z,91.45
2023-02-27T16:19:20.371Z,91.42
2023-02-27T16:22:17.009Z,91.40
2023-02-27T16:24:44.152Z,91.46
2023-02-27T16:27:29.360Z,91.70
2023-02-27T16:30:01.986Z,91.59
2023-02-27T16:32:40.978Z,91.69
2023-02-27T16:35:16.193Z,91.71
2023-02-27T16:37:44.562Z,91.69
2023-02-27T16:40:12.711Z,91.61
2023-02-27T16:42:40.190Z,91.71
2023-02-27T16:45:10.568Z,91.51
2023-02-27T16:47:37.500Z,91.55
2023-02-27T16:50:13.624Z,91.86
2023-02-27T16:52:42.484Z,91.70
2023-02-27T16:55:11.414Z,91.73
2023-02-27T16:57:39.884Z,91.84
2023-02-27T17:07:42.844Z,91.85
2023-02-27T17:10:16.638Z,91.56
2023-02-27T17:12:48.199Z,91.65
2023-02-27T17:15:16.676Z,91.57
2023-02-27T17:17:45.022Z,91.63
2023-02-27T17:20:13.877Z,91.68
2023-02-27T17:22:46.310Z,91.42
2023-02-27T17:25:14.439Z,91.51
2023-02-27T17:27:43.640Z,91.60
2023-02-27T17:30:12.360Z,91.39
2023-02-27T17:32:40.395Z,91.58
2023-02-27T17:35:09.068Z,91.56
2023-02-27T17:37:38.499Z,91.60
2023-02-27T17:40:08.318Z,91.64
2023-02-27T17:42:37.303Z,91.47
2023-02-27T17:45:06.569Z,91.62
2023-02-27T17:47:35.564Z,91.67
2023-02-27T17:50:05.364Z,91.62
2023-02-27T17:52:37.183Z,91.56
2023-02-27T17:55:06.311Z,91.70
2023-02-27T17:57:36.069Z,91.47
2023-02-27T18:00:06.403Z,91.57
2023-02-27T18:02:37.421Z,91.77
2023-02-27T18:05:06.706Z,91.61
2023-02-27T18:07:35.011Z,91.78
2023-02-27T18:10:05.695Z,91.70
2023-02-27T18:12:34.439Z,91.75
2023-02-27T18:15:07.224Z,91.88
2023-02-27T18:17:36.724Z,91.75
2023-02-27T18:20:05.586Z,91.80
2023-02-27T18:22:34.389Z,91.90
2023-02-27T18:25:02.960Z,91.87
2023-02-27T18:27:32.960Z,91.85
2023-02-27T18:30:02.939Z,91.96
2023-02-27T18:32:34.088Z,91.96
2023-02-27T18:35:02.288Z,91.95
2023-02-27T18:37:30.979Z,91.94
2023-02-27T18:39:59.113Z,91.83
2023-02-27T18:42:31.533Z,92.01
2023-02-27T18:45:00.053Z,91.92
2023-02-27T18:47:30.282Z,92.04
2023-02-27T18:49:58.808Z,91.99
2023-02-27T18:52:28.992Z,91.92
2023-02-27T18:54:57.537Z,92.01
2023-02-27T18:57:31.549Z,91.92
2023-02-27T18:59:59.865Z,91.89
2023-02-27T19:02:28.465Z,91.97
2023-02-27T19:04:56.769Z,91.98
2023-02-27T19:07:25.670Z,91.99
2023-02-27T19:09:57.216Z,91.93
2023-02-27T19:12:25.529Z,92.08
2023-02-27T19:14:57.263Z,92.03
2023-02-27T19:17:25.943Z,92.11
2023-02-27T19:19:54.315Z,91.99
2023-02-27T19:22:22.802Z,92.11
2023-02-27T19:24:51.022Z,92.22
2023-02-27T19:27:19.001Z,92.23
2023-02-27T19:29:46.996Z,92.13
2023-02-27T19:32:15.537Z,92.24
2023-02-27T19:34:43.514Z,92.05
2023-02-27T19:37:11.889Z,92.27
2023-02-27T19:39:40.145Z,92.27
2023-02-27T19:42:08.136Z,92.16
2023-02-27T19:44:36.193Z,92.01
2023-02-27T19:47:04.540Z,92.19
2023-02-27T19:49:32.977Z,92.14
2023-02-27T19:52:01.071Z,92.00
2023-02-27T19:54:30.090Z,92.04
2023-02-27T19:56:58.316Z,92.00
2023-02-27T19:59:27.324Z,92.08
2023-02-27T20:01:55.476Z,91.97
2023-02-27T20:04:23.746Z,91.93
2023-02-27T20:06:53.812Z,91.82
2023-02-27T20:09:23.337Z,91.85
2023-02-27T20:11:54.004Z,91.75
2023-02-27T20:14:25.135Z,91.80
2023-02-27T20:16:54.280Z,91.64
2023-02-27T20:19:22.819Z,91.62
2023-02-27T20:21:52.395Z,91.61
2023-02-27T20:24:22.270Z,91.43
2023-02-27T20:26:59.108Z,91.34
2023-02-27T20:29:27.959Z,91.16
2023-02-27T20:31:57.394Z,91.23
2023-02-27T20:34:26.800Z,90.96
2023-02-27T20:36:55.491Z,90.76
2023-02-27T20:39:23.893Z,90.90
2023-02-27T20:41:52.251Z,90.81
2023-02-27T20:44:20.855Z,90.68
2023-02-27T20:46:49.557Z,90.62
2023-02-27T20:49:19.534Z,90.44
2023-02-27T20:51:48.318Z,90.46
2023-02-27T20:54:20.632Z,90.24
2023-02-27T20:56:54.753Z,90.08
2023-02-27T20:59:24.854Z,89.99
2023-02-27T21:01:53.387Z,89.92
2023-02-27T21:04:45.985Z,89.71
2023-02-27T21:07:17.122Z,89.74
2023-02-27T21:09:45.874Z,89.65
2023-02-27T21:12:14.124Z,89.65
2023-02-27T21:14:45.441Z,89.45
2023-02-27T21:17:13.925Z,89.51
2023-02-27T21:19:44.436Z,89.39
2023-02-27T21:22:14.381Z,89.24
2023-02-27T21:24:42.668Z,89.18
2023-02-27T21:27:10.739Z,89.10
2023-02-27T21:29:39.226Z,89.05
2023-02-27T21:32:07.809Z,89.00
2023-02-27T21:34:36.129Z,88.89
2023-02-27T21:37:06.555Z,88.96
2023-02-27T21:39:50.518Z,88.90
2023-02-27T21:42:18.780Z,88.80
2023-02-27T21:44:47.159Z,88.55
2023-02-27T21:47:17.186Z,88.59
2023-02-27T21:49:45.346Z,88.63
2023-02-27T21:52:13.424Z,88.49
2023-02-27T21:54:41.726Z,88.44
2023-02-27T21:57:10.118Z,88.41
2023-02-27T21:59:38.990Z,88.40
2023-02-27T22:02:07.332Z,88.19
2023-02-27T22:04:36.000Z,88.39
2023-02-27T22:07:04.144Z,88.32
2023-02-27T22:09:32.725Z,88.22
2023-02-27T22:12:02.432Z,88.04
2023-02-27T22:14:30.756Z,88.16
2023-02-27T22:16:59.317Z,88.07
2023-02-27T22:19:27.558Z,87.87
2023-02-27T22:21:55.675Z,87.88
2023-02-27T22:24:23.992Z,87.98
2023-02-27T22:26:52.262Z,87.66
2023-02-27T22:29:20.499Z,87.73
2023-02-27T22:31:48.836Z,87.51
2023-02-27T22:34:18.779Z,87.54
2023-02-27T22:36:48.698Z,87.44
2023-02-27T22:39:18.143Z,87.07
2023-02-27T22:41:46.299Z,87.09
2023-02-27T22:44:15.010Z,86.95
2023-02-27T22:46:45.251Z,86.80
2023-02-27T22:49:20.832Z,86.76
2023-02-27T22:51:51.188Z,86.70
2023-02-27T22:54:21.338Z,86.56
2023-02-27T22:56:51.003Z,86.41
2023-02-27T22:59:28.261Z,86.24
2023-02-27T23:01:56.506Z,86.17
2023-02-27T23:04:24.472Z,85.94
2023-02-27T23:06:56.717Z,85.99
2023-02-27T23:09:26.134Z,85.99
2023-02-27T23:11:55.132Z,85.86
2023-02-27T23:14:23.927Z,85.91
2023-02-27T23:16:51.982Z,85.80
2023-02-27T23:19:21.424Z,85.80
2023-02-27T23:21:54.781Z,85.81
2023-02-27T23:24:22.971Z,85.85
2023-02-27T23:26:52.114Z,85.87
2023-02-27T23:29:20.285Z,85.83
2023-02-27T23:31:49.185Z,85.71
2023-02-27T23:34:18.286Z,85.76
2023-02-27T23:36:46.580Z,85.68
2023-02-27T23:39:15.011Z,85.70
2023-02-27T23:41:43.565Z,85.74
2023-02-27T23:44:11.610Z,85.69
2023-02-27T23:46:40.766Z,85.51
2023-02-27T23:49:08.958Z,85.40
2023-02-27T23:51:37.302Z,85.37
2023-02-27T23:54:05.630Z,85.34
2023-02-27T23:56:34.994Z,85.20
2023-02-27T23:59:04.943Z,85.10
